Time;durP1;ratioP1;P1;durP2;ratioP2;P2;SDS_P1;SDS_P2;PMS_P1;PMS_P2;Temp;Humidity;BMP_temperature;BMP_pressure;BME280_temperature;BME280_humidity;BME280_pressure;Samples;Min_cycle;Max_cycle;Signal;HPM_P1;HPM_P2
2022/05/04 00:02:21;;;;;;;1.77;1.30;;;19.00;58.00;;;;;;5012054;28;20213;-68
2022/05/04 00:04:52;;;;;;;1.90;1.30;;;19.00;57.80;;;;;;5011524;28;20758;-64
2022/05/04 00:07:23;;;;;;;2.65;1.30;;;19.00;57.80;;;;;;5012906;28;20216;-61
2022/05/04 00:09:53;;;;;;;1.50;1.40;;;19.00;57.80;;;;;;5013498;28;20200;-63
2022/05/04 00:12:24;;;;;;;1.95;1.50;;;19.00;57.80;;;;;;5013469;28;20205;-63
2022/05/04 00:14:56;;;;;;;1.65;1.40;;;19.00;57.80;;;;;;5013609;28;20267;-63
2022/05/04 00:17:27;;;;;;;1.88;1.40;;;19.00;57.90;;;;;;5012383;28;20252;-64
2022/05/04 00:19:57;;;;;;;2.45;1.67;;;19.10;57.90;;;;;;5010828;28;20275;-64
2022/05/04 00:22:29;;;;;;;1.55;1.45;;;19.10;57.90;;;;;;5011475;28;20188;-64
2022/05/04 00:24:59;;;;;;;1.85;1.52;;;19.10;57.90;;;;;;5011936;28;20196;-66
2022/05/04 00:27:30;;;;;;;1.85;1.40;;;19.10;57.90;;;;;;5006761;28;20213;-64
2022/05/04 00:30:02;;;;;;;1.50;1.40;;;19.20;58.50;;;;;;5011171;28;20201;-63
2022/05/04 00:32:33;;;;;;;3.10;1.83;;;19.20;57.80;;;;;;5009946;28;20192;-64
2022/05/04 00:35:04;;;;;;;2.85;2.15;;;19.20;57.80;;;;;;5011826;28;20197;-62
2022/05/04 00:37:34;;;;;;;2.05;1.85;;;19.20;58.00;;;;;;5010985;28;20216;-62
2022/05/04 00:40:05;;;;;;;2.40;2.15;;;19.20;58.00;;;;;;5011803;28;20189;-62
2022/05/04 00:42:36;;;;;;;2.13;1.92;;;19.20;58.00;;;;;;5011840;28;20189;-61
2022/05/04 00:45:09;;;;;;;2.70;2.17;;;19.30;58.00;;;;;;5012189;28;20189;-63
2022/05/04 00:47:39;;;;;;;3.30;1.90;;;19.30;58.00;;;;;;5011014;28;20263;-69
2022/05/04 00:50:11;;;;;;;2.42;1.88;;;19.30;57.90;;;;;;5009686;28;20221;-61
2022/05/04 00:52:43;;;;;;;3.30;1.88;;;19.30;57.90;;;;;;5009986;28;20189;-63
2022/05/04 00:55:16;;;;;;;3.50;2.10;;;19.30;57.90;;;;;;5011769;28;20201;-64
2022/05/04 01:00:37;;;;;;;2.65;2.17;;;19.40;58.00;;;;;;5011526;28;20208;-62
2022/05/04 01:03:08;;;;;;;2.33;2.13;;;19.40;58.00;;;;;;5011517;28;20204;-61
2022/05/04 01:05:38;;;;;;;2.17;1.90;;;19.40;58.00;;;;;;5010807;28;20259;-63
2022/05/04 01:08:09;;;;;;;3.85;2.05;;;19.40;58.00;;;;;;5010399;28;20360;-61
2022/05/04 01:10:40;;;;;;;3.05;2.20;;;19.40;58.00;;;;;;5009852;28;20263;-62
2022/05/04 01:13:11;;;;;;;4.28;2.08;;;19.40;58.10;;;;;;5010233;28;20189;-64
2022/05/04 01:15:43;;;;;;;2.80;2.47;;;19.40;58.00;;;;;;5011017;28;20209;-69
2022/05/04 01:18:14;;;;;;;3.88;2.55;;;19.50;58.20;;;;;;5009741;28;20213;-63
2022/05/04 01:20:44;;;;;;;2.72;2.20;;;19.50;58.20;;;;;;5009593;28;20197;-61
2022/05/04 01:23:18;;;;;;;3.58;2.53;;;19.50;58.20;;;;;;5009695;28;20197;-62
2022/05/04 01:25:53;;;;;;;2.50;2.30;;;19.60;58.20;;;;;;5010598;28;20670;-62
2022/05/04 01:28:24;;;;;;;2.70;2.20;;;19.60;58.10;;;;;;5009985;28;20334;-68
2022/05/04 01:30:54;;;;;;;2.35;2.15;;;19.60;58.10;;;;;;5009519;28;20310;-62
2022/05/04 01:33:25;;;;;;;2.83;2.42;;;19.60;58.10;;;;;;5010880;28;20267;-61
2022/05/04 01:35:55;;;;;;;2.88;2.58;;;19.60;58.20;;;;;;5010629;28;20197;-65
2022/05/04 01:38:28;;;;;;;2.90;2.60;;;19.60;58.40;;;;;;5010526;28;20705;-62
2022/05/04 01:40:58;;;;;;;4.40;2.88;;;19.70;58.50;;;;;;5010065;28;20243;-65
2022/05/04 01:43:29;;;;;;;2.45;2.25;;;19.70;58.40;;;;;;5009550;28;20267;-62
2022/05/04 01:45:59;;;;;;;3.20;2.42;;;19.70;58.30;;;;;;5009389;28;20186;-66
2022/05/04 01:48:30;;;;;;;2.80;2.60;;;19.70;58.30;;;;;;5009605;28;20247;-63
2022/05/04 01:51:01;;;;;;;2.40;2.20;;;19.80;58.30;;;;;;5008957;28;20255;-63
2022/05/04 01:53:33;;;;;;;3.13;2.17;;;19.80;58.30;;;;;;5010551;28;20244;-63
2022/05/04 01:56:08;;;;;;;2.47;2.28;;;19.80;58.30;;;;;;5009380;28;20718;-60
2022/05/04 01:58:39;;;;;;;2.88;2.58;;;19.80;58.40;;;;;;5010340;28;20201;-61
2022/05/04 02:01:09;;;;;;;2.50;2.30;;;19.90;58.90;;;;;;5008305;28;20221;-66
2022/05/04 02:03:41;;;;;;;2.42;2.22;;;19.90;59.00;;;;;;5009672;28;20266;-62
2022/05/04 02:06:11;;;;;;;2.80;2.45;;;19.90;58.90;;;;;;5009586;28;20230;-61
2022/05/04 02:08:44;;;;;;;3.22;2.60;;;20.00;58.80;;;;;;5009288;28;20193;-63
2022/05/04 02:11:15;;;;;;;2.90;2.60;;;20.00;58.70;;;;;;5009604;28;20307;-63
2022/05/04 02:13:45;;;;;;;2.70;2.15;;;20.00;58.60;;;;;;5009550;28;20193;-62
2022/05/04 02:16:16;;;;;;;2.83;2.20;;;20.00;58.50;;;;;;5009645;28;20193;-65
2022/05/04 02:18:47;;;;;;;3.03;2.30;;;20.00;58.40;;;;;;5008594;28;20189;-62
2022/05/04 02:21:17;;;;;;;2.78;2.20;;;20.10;58.40;;;;;;5008093;28;20649;-63
2022/05/04 02:23:53;;;;;;;3.30;2.80;;;20.10;58.30;;;;;;5006583;28;20748;-64
2022/05/04 02:26:25;;;;;;;2.85;2.30;;;20.10;58.30;;;;;;5008703;28;20649;-61
2022/05/04 02:28:56;;;;;;;2.60;2.40;;;20.10;58.30;;;;;;5009283;28;20189;-64
2022/05/04 02:31:26;;;;;;;2.40;2.20;;;20.10;58.20;;;;;;5008891;28;20727;-62
2022/05/04 02:33:57;;;;;;;2.58;2.35;;;20.10;58.20;;;;;;5008533;28;20280;-67
2022/05/04 02:39:15;;;;;;;2.88;2.55;;;20.10;58.10;;;;;;5008159;28;20635;-64
2022/05/04 02:41:49;;;;;;;2.60;2.40;;;20.10;58.00;;;;;;5008515;28;20251;-61
2022/05/04 02:44:22;;;;;;;3.05;2.75;;;20.20;58.10;;;;;;5009094;28;20197;-59
2022/05/04 02:46:53;;;;;;;2.95;2.65;;;20.10;58.00;;;;;;5008312;28;20220;-63
2022/05/04 02:49:24;;;;;;;3.10;2.60;;;20.20;58.00;;;;;;5009189;28;20189;-64
2022/05/04 02:51:55;;;;;;;3.00;2.70;;;20.20;57.90;;;;;;5008154;28;20228;-60
2022/05/04 02:54:27;;;;;;;3.85;2.70;;;20.20;57.90;;;;;;5009079;28;20192;-61
2022/05/04 02:56:57;;;;;;;2.45;2.25;;;20.20;57.90;;;;;;5007358;28;20221;-60
2022/05/04 02:59:29;;;;;;;3.25;2.70;;;20.20;57.90;;;;;;5009132;28;20259;-59
2022/05/04 03:04:47;;;;;;;3.15;2.85;;;20.20;57.80;;;;;;5008644;28;20674;-60
2022/05/04 03:07:20;;;;;;;3.28;2.45;;;20.20;57.80;;;;;;5008965;28;20217;-60
2022/05/04 03:09:52;;;;;;;3.03;2.55;;;20.20;57.80;;;;;;5008133;28;20193;-61
2022/05/04 03:12:23;;;;;;;2.50;2.30;;;20.20;57.80;;;;;;5008159;28;20224;-61
2022/05/04 03:14:54;;;;;;;2.45;2.20;;;20.20;57.80;;;;;;5007999;28;20224;-61
2022/05/04 03:17:25;;;;;;;3.03;2.50;;;20.20;58.40;;;;;;5008099;28;20248;-61
2022/05/04 03:19:55;;;;;;;2.50;2.30;;;20.20;57.80;;;;;;5008126;28;20270;-64
2022/05/04 03:22:26;;;;;;;2.75;2.53;;;20.20;57.80;;;;;;5008042;28;20733;-63
2022/05/04 03:24:58;;;;;;;2.47;2.28;;;20.20;57.80;;;;;;5007605;28;20188;-61
2022/05/04 03:27:29;;;;;;;2.50;2.30;;;20.20;57.70;;;;;;5008639;28;20266;-61
2022/05/04 03:29:59;;;;;;;3.03;2.72;;;20.20;57.70;;;;;;5008585;28;20263;-65
2022/05/04 03:32:30;;;;;;;2.15;2.00;;;20.20;57.70;;;;;;5008468;28;20651;-60
2022/05/04 03:35:00;;;;;;;2.33;2.13;;;20.20;57.70;;;;;;5009244;28;20200;-60
2022/05/04 03:37:31;;;;;;;2.45;2.25;;;20.20;57.70;;;;;;5007950;28;20291;-64
2022/05/04 03:40:03;;;;;;;2.60;2.40;;;20.30;57.70;;;;;;5007887;28;20232;-59
2022/05/04 03:42:34;;;;;;;2.58;2.38;;;20.30;57.70;;;;;;5005976;28;20335;-61
2022/05/04 03:45:04;;;;;;;2.33;2.13;;;20.30;57.80;;;;;;5008571;28;20661;-64
2022/05/04 03:47:35;;;;;;;2.60;2.40;;;20.20;57.70;;;;;;5008128;28;20479;-63
2022/05/04 03:50:06;;;;;;;2.50;2.30;;;20.20;57.70;;;;;;5008134;28;20205;-61
2022/05/04 03:52:36;;;;;;;2.20;2.00;;;20.30;57.80;;;;;;5009100;28;20686;-68
2022/05/04 03:55:10;;;;;;;2.67;2.42;;;20.30;57.80;;;;;;5008700;28;21018;-64
2022/05/04 03:57:40;;;;;;;2.53;2.28;;;20.30;57.80;;;;;;5008176;28;20209;-65
2022/05/04 04:00:11;;;;;;;2.13;1.98;;;20.30;57.80;;;;;;5008276;28;20660;-64
2022/05/04 04:02:42;;;;;;;2.63;2.20;;;20.20;57.70;;;;;;5007894;28;20332;-61
2022/05/04 04:05:12;;;;;;;2.38;2.03;;;20.20;57.70;;;;;;5007931;28;20247;-62
2022/05/04 04:07:43;;;;;;;2.42;2.22;;;20.20;57.70;;;;;;5007506;28;20216;-62
2022/05/04 04:10:16;;;;;;;2.78;2.58;;;20.30;57.80;;;;;;5006398;28;20674;-63
2022/05/04 04:12:49;;;;;;;2.20;2.00;;;20.30;57.70;;;;;;5011800;28;20264;-67
2022/05/04 04:15:19;;;;;;;2.30;2.10;;;20.30;57.70;;;;;;5011592;28;20201;-67
2022/05/04 04:17:50;;;;;;;2.25;2.05;;;20.20;57.70;;;;;;5011513;28;20243;-64
2022/05/04 04:23:15;;;;;;;2.15;1.90;;;20.20;57.70;;;;;;4938107;28;20222;-62
2022/05/04 04:25:48;;;;;;;2.25;2.05;;;20.30;58.10;;;;;;5011282;28;20204;-60
2022/05/04 04:28:20;;;;;;;2.33;2.15;;;20.30;58.40;;;;;;5009914;28;20221;-59
2022/05/04 04:30:53;;;;;;;2.42;2.22;;;20.30;58.40;;;;;;5011146;28;20203;-59
2022/05/04 04:33:26;;;;;;;2.60;2.40;;;20.30;59.10;;;;;;5011718;28;20751;-67
2022/05/04 04:35:57;;;;;;;2.40;2.20;;;20.30;58.50;;;;;;5010640;28;20287;-61
2022/05/04 04:38:27;;;;;;;3.55;2.92;;;20.30;58.60;;;;;;5010872;28;20295;-61
2022/05/04 04:41:00;;;;;;;3.60;2.65;;;20.30;58.60;;;;;;5011596;28;20853;-62
2022/05/04 04:43:30;;;;;;;2.95;2.63;;;20.30;59.00;;;;;;5010752;28;20189;-60
2022/05/04 04:46:01;;;;;;;3.20;2.88;;;20.30;58.70;;;;;;5011403;28;20251;-62
2022/05/04 04:48:31;;;;;;;3.85;2.72;;;20.30;58.70;;;;;;5011334;28;20699;-60
2022/05/04 04:51:02;;;;;;;3.72;2.78;;;20.30;58.80;;;;;;5010975;28;20282;-60
2022/05/04 04:53:32;;;;;;;3.35;2.63;;;20.30;58.70;;;;;;5010977;28;20201;-61
2022/05/04 04:56:05;;;;;;;4.07;2.72;;;20.30;58.70;;;;;;5010892;28;20575;-63
2022/05/04 04:58:35;;;;;;;3.42;2.70;;;20.30;58.70;;;;;;5011209;28;20579;-61
2022/05/04 05:01:06;;;;;;;3.28;2.95;;;20.30;58.70;;;;;;5010803;28;20304;-61
2022/05/04 05:03:36;;;;;;;4.05;3.30;;;20.30;58.70;;;;;;5010908;28;20205;-62
2022/05/04 05:06:07;;;;;;;6.70;3.58;;;20.30;58.70;;;;;;5010084;28;20196;-61
2022/05/04 05:08:41;;;;;;;3.00;2.80;;;20.30;58.70;;;;;;5010556;28;20251;-61
2022/05/04 05:11:13;;;;;;;4.93;3.40;;;20.30;58.70;;;;;;5010184;28;20201;-61
2022/05/04 05:16:27;;;;;;;5.43;3.83;;;20.30;58.70;;;;;;5007498;28;20220;-62
2022/05/04 05:18:58;;;;;;;4.78;3.83;;;20.30;58.70;;;;;;5010574;28;20197;-60
2022/05/04 05:21:28;;;;;;;5.35;3.97;;;20.30;58.70;;;;;;5009802;28;20193;-63
2022/05/04 05:23:59;;;;;;;5.90;4.30;;;20.30;58.70;;;;;;5010256;28;20267;-63
2022/05/04 05:26:31;;;;;;;5.60;4.40;;;20.30;58.70;;;;;;5009500;28;20787;-63
2022/05/04 05:29:02;;;;;;;6.15;4.68;;;20.30;58.70;;;;;;5009840;28;20645;-60
2022/05/04 05:31:32;;;;;;;5.47;4.75;;;20.30;58.70;;;;;;5010255;28;20193;-62
2022/05/04 05:34:03;;;;;;;4.97;4.10;;;20.30;58.70;;;;;;5006400;28;20197;-60
2022/05/04 05:36:33;;;;;;;5.28;4.30;;;20.30;58.70;;;;;;5010354;28;20279;-62
2022/05/04 05:39:04;;;;;;;5.80;4.90;;;20.30;58.70;;;;;;5010109;28;20201;-61
2022/05/04 05:41:36;;;;;;;5.55;4.95;;;20.30;58.70;;;;;;5009877;28;20259;-59
2022/05/04 05:44:07;;;;;;;4.50;4.10;;;20.30;58.70;;;;;;5009425;28;20200;-60
2022/05/04 05:46:37;;;;;;;5.75;4.45;;;20.30;58.70;;;;;;5009862;28;20221;-59
2022/05/04 05:49:08;;;;;;;4.95;4.43;;;20.30;58.80;;;;;;5011694;28;20263;-60
2022/05/04 05:51:38;;;;;;;5.45;4.50;;;20.30;58.80;;;;;;5011584;28;20646;-63
2022/05/04 05:54:09;;;;;;;4.97;4.13;;;20.30;58.80;;;;;;5011423;28;20294;-61
2022/05/04 05:56:41;;;;;;;5.35;4.70;;;20.30;58.70;;;;;;5011480;28;20278;-60
2022/05/04 05:59:12;;;;;;;5.28;4.78;;;20.30;58.70;;;;;;5011755;28;20204;-61
2022/05/04 06:01:43;;;;;;;4.97;4.47;;;20.20;58.70;;;;;;5010988;28;20197;-60
2022/05/04 06:04:14;;;;;;;5.45;4.32;;;20.20;58.70;;;;;;5011245;28;20566;-62
2022/05/04 06:06:44;;;;;;;5.75;4.93;;;20.30;58.70;;;;;;5010627;28;20294;-60
2022/05/04 06:09:15;;;;;;;5.90;4.63;;;20.30;58.70;;;;;;5009850;28;20188;-62
2022/05/04 06:11:47;;;;;;;6.03;4.90;;;20.30;58.70;;;;;;5005693;28;20193;-61
2022/05/04 06:14:18;;;;;;;5.68;4.55;;;20.30;58.70;;;;;;5009258;28;20297;-61
2022/05/04 06:16:50;;;;;;;5.63;5.13;;;20.20;58.60;;;;;;5009933;28;20208;-61
2022/05/04 06:19:21;;;;;;;6.20;5.03;;;20.20;58.60;;;;;;5009817;28;20236;-59
2022/05/04 06:21:51;;;;;;;5.35;4.82;;;20.30;58.70;;;;;;5008924;28;20204;-60
2022/05/04 06:24:22;;;;;;;6.63;4.97;;;20.20;58.60;;;;;;5006924;28;20205;-60
2022/05/04 06:26:54;;;;;;;5.85;4.90;;;20.30;58.70;;;;;;5008264;28;20216;-60
2022/05/04 06:34:06;;;;;;;5.25;4.75;;;20.30;58.60;;;;;;5009811;28;20193;-60
2022/05/04 06:35:06;;;;;;;5.30;4.68;;;20.20;58.60;;;;;;5008129;28;20212;-60
2022/05/04 06:37:37;;;;;;;5.05;4.55;;;20.20;58.60;;;;;;5007454;28;20763;-60
2022/05/04 06:40:08;;;;;;;5.65;4.93;;;20.20;58.60;;;;;;5007781;28;20201;-61
2022/05/04 06:42:41;;;;;;;5.38;4.88;;;20.20;58.60;;;;;;5006917;28;20614;-60
2022/05/04 06:45:12;;;;;;;6.65;5.07;;;20.20;58.60;;;;;;5007775;28;20649;-60
2022/05/04 06:47:43;;;;;;;5.25;4.72;;;20.20;58.60;;;;;;5007585;28;20220;-61
2022/05/04 06:50:13;;;;;;;5.80;4.97;;;20.20;58.60;;;;;;5008306;28;20197;-61
2022/05/04 06:52:44;;;;;;;5.03;4.53;;;20.20;58.50;;;;;;5006853;28;20365;-60
2022/05/04 06:55:15;;;;;;;6.05;5.20;;;20.20;58.50;;;;;;5007820;28;20193;-60
2022/05/04 06:57:47;;;;;;;4.78;4.22;;;20.20;59.10;;;;;;5007169;28;20271;-61
2022/05/04 07:00:18;;;;;;;5.70;5.10;;;20.20;58.50;;;;;;5007531;28;20251;-61
2022/05/04 07:02:49;;;;;;;5.28;4.78;;;20.20;58.50;;;;;;5006498;28;20197;-60
2022/05/04 07:05:19;;;;;;;5.03;4.50;;;20.20;58.50;;;;;;5007493;28;20216;-60
2022/05/04 07:07:53;;;;;;;5.85;4.68;;;20.10;58.40;;;;;;5007512;28;20212;-62
2022/05/04 07:10:23;;;;;;;6.72;4.88;;;20.10;58.40;;;;;;5006780;28;20343;-59
2022/05/04 07:12:56;;;;;;;5.32;4.82;;;20.10;58.40;;;;;;5006732;28;20252;-62
2022/05/04 07:15:26;;;;;;;4.75;4.25;;;20.10;58.50;;;;;;5006873;28;20603;-60
2022/05/04 07:17:59;;;;;;;5.53;4.65;;;20.10;58.40;;;;;;5008165;28;20343;-60
2022/05/04 07:20:29;;;;;;;5.35;4.85;;;20.10;58.40;;;;;;5007207;28;20193;-62
2022/05/04 07:23:00;;;;;;;6.57;4.80;;;20.10;58.40;;;;;;5003760;28;20217;-64
2022/05/04 07:25:30;;;;;;;4.90;4.40;;;20.10;58.40;;;;;;5007739;28;20255;-62
2022/05/04 07:28:03;;;;;;;4.53;4.13;;;20.10;58.40;;;;;;5007092;28;20263;-61
2022/05/04 07:30:33;;;;;;;4.43;4.03;;;20.10;58.40;;;;;;5007465;28;20255;-65
2022/05/04 07:33:04;;;;;;;5.05;4.65;;;20.10;58.40;;;;;;5003675;28;20221;-60
2022/05/04 07:35:34;;;;;;;5.20;4.68;;;20.10;58.40;;;;;;4992513;28;20201;-61
2022/05/04 07:38:05;;;;;;;5.22;4.72;;;20.10;58.30;;;;;;4990750;28;20213;-61
2022/05/04 07:43:23;;;;;;;5.15;4.63;;;20.00;58.30;;;;;;4991833;28;20852;-60
2022/05/04 07:45:54;;;;;;;4.75;4.28;;;20.00;58.30;;;;;;4993280;28;20591;-60
2022/05/04 07:48:25;;;;;;;5.63;4.45;;;20.00;58.20;;;;;;4995150;28;20760;-62
2022/05/04 07:50:55;;;;;;;5.20;4.65;;;20.00;58.30;;;;;;4994908;28;20417;-61
2022/05/04 07:53:26;;;;;;;5.15;4.65;;;20.00;58.30;;;;;;4995426;28;20225;-61
2022/05/04 07:55:56;;;;;;;4.50;4.10;;;20.00;58.20;;;;;;4995626;28;20646;-62
2022/05/04 07:58:29;;;;;;;5.10;4.60;;;20.00;58.20;;;;;;4995244;28;20760;-61
2022/05/04 08:06:32;;;;;;;4.88;4.38;;;20.00;58.20;;;;;;4995589;28;20308;-62
2022/05/04 08:09:03;;;;;;;4.65;4.25;;;19.90;58.20;;;;;;4995258;28;20248;-62
2022/05/04 08:11:33;;;;;;;5.13;4.60;;;19.90;58.20;;;;;;4995449;28;20248;-61
2022/05/04 08:14:06;;;;;;;4.28;3.97;;;19.90;58.20;;;;;;4995029;28;20221;-61
2022/05/04 08:16:37;;;;;;;4.35;3.95;;;19.90;58.30;;;;;;4994830;28;20612;-62
2022/05/04 08:19:08;;;;;;;4.70;4.30;;;19.90;58.30;;;;;;4994220;28;20810;-61
2022/05/04 08:21:39;;;;;;;4.38;3.97;;;19.90;58.30;;;;;;4997081;28;20197;-61
2022/05/04 08:24:10;;;;;;;5.57;4.50;;;19.90;58.30;;;;;;4994514;28;20194;-61
2022/05/04 08:26:41;;;;;;;4.57;4.00;;;19.90;58.30;;;;;;4994138;28;20217;-61
2022/05/04 08:29:14;;;;;;;4.40;4.00;;;19.80;58.20;;;;;;4994704;28;20717;-65
2022/05/04 08:31:44;;;;;;;4.30;3.90;;;19.90;58.30;;;;;;4995045;28;20533;-64
2022/05/04 08:34:15;;;;;;;4.63;4.22;;;19.90;58.20;;;;;;4994721;28;20288;-65
2022/05/04 08:36:45;;;;;;;4.28;3.83;;;19.90;58.20;;;;;;4994657;28;20221;-63
2022/05/04 08:39:16;;;;;;;4.90;4.25;;;19.90;58.20;;;;;;4994786;28;20244;-62
2022/05/04 08:41:47;;;;;;;4.70;4.30;;;19.90;58.20;;;;;;4993966;28;20251;-64
2022/05/04 08:44:20;;;;;;;5.55;4.55;;;19.80;58.20;;;;;;4994110;28;20201;-62
2022/05/04 08:46:53;;;;;;;4.78;4.28;;;19.90;58.20;;;;;;4993956;28;20268;-61
2022/05/04 08:49:25;;;;;;;4.72;4.32;;;19.80;58.20;;;;;;4993943;28;20554;-68
2022/05/04 08:52:00;;;;;;;4.15;3.75;;;19.80;58.10;;;;;;4994365;28;20208;-62
2022/05/04 08:54:30;;;;;;;3.85;3.47;;;19.80;58.10;;;;;;4994043;28;20287;-65
2022/05/04 08:57:01;;;;;;;4.22;3.83;;;19.80;58.20;;;;;;4993834;28;20712;-65
2022/05/04 08:59:34;;;;;;;4.68;4.07;;;19.80;58.20;;;;;;4994129;28;20248;-64
2022/05/04 09:02:04;;;;;;;4.03;3.72;;;19.80;58.20;;;;;;4994309;28;20197;-62
2022/05/04 09:04:35;;;;;;;4.25;3.85;;;19.70;58.20;;;;;;4993879;28;20225;-63
2022/05/04 09:07:06;;;;;;;4.13;3.72;;;19.80;58.30;;;;;;4994269;28;20248;-64
2022/05/04 09:09:38;;;;;;;4.32;3.92;;;19.70;58.30;;;;;;4994266;28;20270;-61
2022/05/04 09:12:09;;;;;;;4.30;3.90;;;19.70;58.30;;;;;;4993986;28;20197;-62
2022/05/04 09:14:42;;;;;;;4.60;4.20;;;19.70;58.30;;;;;;4993741;28;20261;-63
2022/05/04 09:17:14;;;;;;;4.30;3.90;;;19.70;58.70;;;;;;4993800;28;20221;-61
2022/05/04 09:20:45;;;;;;;4.45;4.05;;;19.80;58.80;;;;;;4993467;28;20216;-63
2022/05/04 09:22:52;;;;;;;6.07;3.55;;;19.80;58.80;;;;;;4994052;28;20193;-61
2022/05/04 09:25:25;;;;;;;4.53;4.13;;;19.80;58.70;;;;;;4993950;28;20198;-63
2022/05/04 09:27:56;;;;;;;4.22;3.90;;;19.70;58.60;;;;;;4993569;28;20228;-62
2022/05/04 09:30:31;;;;;;;4.10;3.70;;;19.70;58.60;;;;;;4993989;28;20571;-62
2022/05/04 09:33:02;;;;;;;3.83;3.53;;;19.70;58.60;;;;;;4993920;28;20229;-61
2022/05/04 09:35:36;;;;;;;4.10;3.65;;;19.70;58.60;;;;;;4993751;28;20256;-59
2022/05/04 09:46:45;;;;;;;4.30;3.90;;;19.70;58.60;;;;;;4993445;28;20220;-62
2022/05/04 09:49:19;;;;;;;4.20;3.80;;;19.70;58.60;;;;;;4993543;28;20240;-62
2022/05/04 09:51:51;;;;;;;3.90;3.50;;;19.60;58.60;;;;;;4990505;28;20196;-61
2022/05/04 09:54:25;;;;;;;3.78;3.47;;;19.60;58.60;;;;;;4993084;28;20229;-61
2022/05/04 09:56:57;;;;;;;4.32;3.15;;;19.60;58.60;;;;;;4993296;28;20697;-62
2022/05/04 09:59:29;;;;;;;4.00;3.70;;;19.70;58.60;;;;;;4993008;28;20730;-61
2022/05/04 10:02:03;;;;;;;3.80;3.33;;;19.60;58.60;;;;;;4992990;28;20635;-61
2022/05/04 10:04:34;;;;;;;3.55;3.22;;;19.60;58.60;;;;;;4992319;28;20204;-61
2022/05/04 10:07:05;;;;;;;3.60;3.30;;;19.60;58.50;;;;;;4992636;28;20218;-61
2022/05/04 10:09:36;;;;;;;3.70;3.40;;;19.60;58.50;;;;;;4992350;28;20233;-63
2022/05/04 10:12:10;;;;;;;4.10;3.70;;;19.60;58.50;;;;;;4992939;28;20197;-62
2022/05/04 10:14:43;;;;;;;3.45;3.15;;;19.60;58.50;;;;;;4992098;28;20800;-64
2022/05/04 10:17:18;;;;;;;4.00;3.70;;;19.60;58.50;;;;;;4992605;28;20221;-63
2022/05/04 10:19:53;;;;;;;3.25;3.05;;;19.60;58.50;;;;;;4991756;28;20197;-63
2022/05/04 10:22:30;;;;;;;3.63;3.33;;;19.60;58.50;;;;;;4992586;28;20251;-62
2022/05/04 10:25:03;;;;;;;3.53;3.22;;;19.60;58.50;;;;;;4991690;28;20590;-63
2022/05/04 10:27:33;;;;;;;3.88;3.55;;;19.60;58.50;;;;;;4994915;28;20214;-61
2022/05/04 10:32:55;;;;;;;3.65;3.33;;;19.60;58.50;;;;;;4992655;28;20292;-63
2022/05/04 10:35:35;;;;;;;3.50;3.20;;;19.60;58.50;;;;;;4992841;28;20232;-63
2022/05/04 10:38:13;;;;;;;3.85;3.13;;;19.50;58.50;;;;;;4992561;28;20225;-63
2022/05/04 10:40:50;;;;;;;4.72;3.53;;;19.60;58.50;;;;;;4992116;28;20309;-63
2022/05/04 10:43:37;;;;;;;4.00;3.28;;;19.50;59.10;;;;;;4992154;28;20556;-62
2022/05/04 10:46:12;;;;;;;3.53;3.22;;;19.50;58.50;;;;;;4992051;28;20208;-62
2022/05/04 10:48:54;;;;;;;3.47;3.17;;;19.50;58.50;;;;;;4992093;28;20197;-62
2022/05/04 10:51:25;;;;;;;3.40;3.10;;;19.50;58.50;;;;;;4991977;28;20201;-61
2022/05/04 10:54:02;;;;;;;3.17;2.88;;;19.50;58.50;;;;;;4992314;28;20233;-62
2022/05/04 10:56:38;;;;;;;3.35;3.00;;;19.50;58.50;;;;;;4992035;28;20272;-61
2022/05/04 10:59:09;;;;;;;3.47;3.10;;;19.50;58.50;;;;;;4992063;28;20193;-62
2022/05/04 11:01:41;;;;;;;3.60;3.30;;;19.50;58.40;;;;;;4992130;28;20662;-62
2022/05/04 11:04:28;;;;;;;3.15;2.95;;;19.50;58.40;;;;;;4992256;28;20244;-61
2022/05/04 11:07:07;;;;;;;3.15;2.75;;;19.50;58.50;;;;;;4991221;28;20311;-61
2022/05/04 11:09:40;;;;;;;3.22;2.95;;;19.50;58.40;;;;;;4992178;28;20219;-62
2022/05/04 11:12:12;;;;;;;3.22;3.03;;;19.50;58.40;;;;;;4992523;28;20573;-61
2022/05/04 11:14:43;;;;;;;3.35;3.05;;;19.40;58.40;;;;;;4992124;28;20304;-62
2022/05/04 11:17:14;;;;;;;2.95;2.75;;;19.40;58.40;;;;;;4991798;28;20267;-61
2022/05/04 11:19:48;;;;;;;3.50;3.20;;;19.40;58.40;;;;;;4991793;28;20193;-62
2022/05/04 11:22:21;;;;;;;3.30;3.00;;;19.40;58.40;;;;;;4995977;28;20268;-64
2022/05/04 11:24:52;;;;;;;3.17;2.90;;;19.40;58.40;;;;;;4996231;28;20349;-61
2022/05/04 11:27:23;;;;;;;2.92;2.70;;;19.40;58.40;;;;;;4995770;28;20221;-62
2022/05/04 11:29:53;;;;;;;3.03;2.83;;;19.40;58.40;;;;;;4994650;28;20205;-61
2022/05/04 11:32:24;;;;;;;3.13;2.70;;;19.40;58.40;;;;;;4995594;28;20193;-60
2022/05/04 11:34:58;;;;;;;2.92;2.72;;;19.40;58.40;;;;;;4996017;28;20276;-60
2022/05/04 11:37:31;;;;;;;3.28;2.97;;;19.40;58.40;;;;;;4976265;28;20216;-60
2022/05/04 11:40:14;;;;;;;2.90;2.70;;;19.40;58.40;;;;;;4976237;28;20202;-60
2022/05/04 11:42:48;;;;;;;3.25;3.00;;;19.30;58.40;;;;;;4976226;28;20249;-60
2022/05/04 11:45:20;;;;;;;3.00;2.80;;;19.30;58.40;;;;;;4976500;28;20207;-62
2022/05/04 11:47:51;;;;;;;3.00;2.80;;;19.40;58.40;;;;;;4976093;28;20264;-63
2022/05/04 11:50:23;;;;;;;3.45;3.15;;;19.30;58.40;;;;;;4978144;28;20257;-63
2022/05/04 11:52:54;;;;;;;3.08;2.78;;;19.40;58.40;;;;;;4995492;28;20201;-63
2022/05/04 11:55:25;;;;;;;2.55;2.35;;;19.30;58.40;;;;;;4995102;28;20233;-63
2022/05/04 11:57:56;;;;;;;2.90;2.70;;;19.30;58.40;;;;;;4994761;28;20677;-62
2022/05/04 12:00:27;;;;;;;2.95;2.65;;;19.30;58.40;;;;;;4995195;28;20202;-62
2022/05/04 12:02:58;;;;;;;3.22;2.95;;;19.30;58.40;;;;;;4995228;28;20193;-63
2022/05/04 12:05:30;;;;;;;2.95;2.75;;;19.30;58.40;;;;;;4994679;28;20205;-62
2022/05/04 12:08:01;;;;;;;2.72;2.53;;;19.30;58.40;;;;;;4994831;28;20280;-60
2022/05/04 12:10:32;;;;;;;2.83;2.63;;;19.30;58.40;;;;;;4994511;28;20248;-61
2022/05/04 12:13:04;;;;;;;3.22;2.72;;;19.20;59.00;;;;;;4994811;28;20260;-62
2022/05/04 12:15:37;;;;;;;3.20;2.90;;;19.20;58.40;;;;;;4993300;28;20225;-62
2022/05/04 12:18:08;;;;;;;2.70;2.50;;;19.20;58.40;;;;;;4976131;28;20218;-60
2022/05/04 12:20:40;;;;;;;3.13;2.83;;;19.20;58.40;;;;;;4978392;28;20202;-61
2022/05/04 12:23:12;;;;;;;2.80;2.60;;;19.20;58.40;;;;;;4995111;28;20535;-61
2022/05/04 12:25:44;;;;;;;3.35;2.75;;;19.20;58.40;;;;;;4980485;28;20257;-61
2022/05/04 12:28:15;;;;;;;2.75;2.55;;;19.20;58.40;;;;;;4974832;28;20617;-61
2022/05/04 12:33:35;;;;;;;2.78;2.58;;;19.20;58.40;;;;;;4975249;28;20562;-61
2022/05/04 12:36:09;;;;;;;2.55;2.35;;;19.20;58.40;;;;;;4987977;28;20193;-61
2022/05/04 12:38:45;;;;;;;2.72;2.53;;;19.20;58.40;;;;;;4994635;28;20658;-61
2022/05/04 12:41:18;;;;;;;2.80;2.60;;;19.20;58.40;;;;;;4994455;28;20232;-61
2022/05/04 12:43:52;;;;;;;3.00;2.80;;;19.20;58.40;;;;;;4994506;28;20201;-61
2022/05/04 12:46:23;;;;;;;2.60;2.40;;;19.10;58.40;;;;;;4994519;28;20247;-61
2022/05/04 12:48:54;;;;;;;3.17;2.65;;;19.10;58.40;;;;;;4994775;28;20202;-61
2022/05/04 12:51:28;;;;;;;2.92;2.65;;;19.10;58.40;;;;;;4993946;28;20202;-60
2022/05/04 12:53:58;;;;;;;2.47;2.28;;;19.10;58.40;;;;;;4994507;28;20279;-60
2022/05/04 12:59:15;;;;;;;2.80;2.60;;;19.10;58.40;;;;;;4994089;28;20553;-62
2022/05/04 13:01:46;;;;;;;2.30;2.20;;;19.10;58.40;;;;;;4993166;28;20256;-61
2022/05/04 13:04:18;;;;;;;2.47;2.28;;;19.10;58.40;;;;;;4993981;28;20661;-61
2022/05/04 13:06:51;;;;;;;2.42;2.22;;;19.10;58.40;;;;;;4993250;28;20311;-59
2022/05/04 13:09:22;;;;;;;2.28;2.10;;;19.10;58.50;;;;;;4993871;28;20260;-60
2022/05/04 13:11:53;;;;;;;2.50;2.30;;;19.00;58.30;;;;;;4994066;28;20193;-61
2022/05/04 13:14:23;;;;;;;2.70;2.50;;;19.00;58.40;;;;;;4993893;28;20229;-60
2022/05/04 13:16:54;;;;;;;2.10;2.00;;;19.00;58.40;;;;;;4994003;28;20226;-62
2022/05/04 13:19:24;;;;;;;2.22;2.03;;;19.00;58.40;;;;;;4994019;28;20202;-61
2022/05/04 13:21:57;;;;;;;2.50;2.30;;;19.00;58.40;;;;;;4993133;28;20252;-60
2022/05/04 13:24:27;;;;;;;2.53;2.33;;;19.00;58.40;;;;;;4993379;28;20716;-61
2022/05/04 13:26:58;;;;;;;2.53;2.20;;;19.00;58.30;;;;;;4993739;28;20221;-61
2022/05/04 13:29:28;;;;;;;2.80;2.60;;;19.00;58.30;;;;;;4993663;28;20254;-61
2022/05/04 13:31:59;;;;;;;2.40;2.20;;;19.00;58.40;;;;;;4993367;28;20198;-61
2022/05/04 13:34:29;;;;;;;2.60;2.40;;;19.00;58.40;;;;;;4993930;28;20229;-61
2022/05/04 13:37:02;;;;;;;2.55;2.33;;;18.90;58.40;;;;;;4992772;28;20253;-62
2022/05/04 13:39:32;;;;;;;2.33;2.13;;;18.90;58.40;;;;;;4993576;28;20197;-60
2022/05/04 13:42:03;;;;;;;2.38;2.17;;;18.90;58.40;;;;;;4993256;28;20636;-61
2022/05/04 13:44:33;;;;;;;2.40;2.20;;;18.90;58.40;;;;;;4992526;28;20673;-60
2022/05/04 13:47:04;;;;;;;2.35;2.15;;;18.90;58.40;;;;;;4993608;28;20221;-61
2022/05/04 13:49:35;;;;;;;2.50;2.30;;;18.90;58.40;;;;;;4993445;28;20206;-61
2022/05/04 13:54:54;;;;;;;2.15;2.00;;;18.90;58.40;;;;;;4993315;28;20248;-61
2022/05/04 13:57:25;;;;;;;2.10;1.90;;;18.90;58.40;;;;;;4992800;28;20218;-62